Time;durP1;ratioP1;P1;durP2;ratioP2;P2;SDS_P1;SDS_P2;PMS_P1;PMS_P2;Temp;Humidity;BMP_temperature;BMP_pressure;BME280_temperature;BME280_humidity;BME280_pressure;Samples;Min_cycle;Max_cycle;Signal;HPM_P1;HPM_P2
2024/02/19 00:09:23;;;;;;;32.72;21.17;;;4.70;99.90;;;;;;20521994;28;20057;-41
2024/02/19 00:19:24;;;;;;;32.00;21.58;;;4.90;99.90;;;;;;20522339;28;20936;-42
2024/02/19 00:29:26;;;;;;;30.38;19.67;;;4.90;99.90;;;;;;20523610;28;20160;-41
2024/02/19 00:39:28;;;;;;;26.40;18.80;;;4.80;99.90;;;;;;20520405;28;20333;-42
2024/02/19 00:49:30;;;;;;;26.75;18.98;;;4.70;99.90;;;;;;20517347;28;20124;-41
2024/02/19 00:59:32;;;;;;;28.08;19.33;;;4.70;99.90;;;;;;20523348;28;20108;-41
2024/02/19 01:09:34;;;;;;;32.75;18.27;;;4.60;99.90;;;;;;20519063;28;20263;-43
2024/02/19 01:19:36;;;;;;;27.42;18.17;;;4.60;99.90;;;;;;20534934;28;20112;-42
2024/02/19 01:29:38;;;;;;;25.42;18.10;;;4.60;99.90;;;;;;20535496;28;20120;-42
2024/02/19 01:39:39;;;;;;;27.83;18.17;;;4.60;99.90;;;;;;20536073;28;20080;-42
2024/02/19 01:49:41;;;;;;;31.33;20.45;;;4.80;99.90;;;;;;20535368;28;20156;-43
2024/02/19 01:59:44;;;;;;;32.10;20.67;;;4.80;99.90;;;;;;20533886;28;20168;-42
2024/02/19 02:09:46;;;;;;;28.50;18.85;;;4.70;99.90;;;;;;20532535;28;20172;-41
2024/02/19 02:19:48;;;;;;;32.97;20.30;;;4.60;99.90;;;;;;20532756;28;20160;-40
2024/02/19 02:29:49;;;;;;;32.30;19.88;;;4.60;99.90;;;;;;20534746;28;20722;-41
2024/02/19 02:39:52;;;;;;;32.13;20.02;;;4.60;99.90;;;;;;20530953;28;20156;-42
2024/02/19 02:49:57;;;;;;;30.83;19.55;;;4.50;99.90;;;;;;20526639;28;20129;-41
2024/02/19 03:00:03;;;;;;;29.35;20.08;;;4.40;99.90;;;;;;20532150;28;20226;-41
2024/02/19 03:10:05;;;;;;;29.10;18.73;;;4.40;99.90;;;;;;20526334;28;20159;-41
2024/02/19 03:20:13;;;;;;;32.78;19.88;;;4.30;99.90;;;;;;20525489;28;20559;-41
2024/02/19 03:30:15;;;;;;;24.83;16.40;;;4.20;99.90;;;;;;20524056;28;20979;-44
2024/02/19 03:40:17;;;;;;;31.67;20.00;;;4.20;99.90;;;;;;20526619;28;20065;-41
2024/02/19 03:50:20;;;;;;;32.67;20.27;;;4.20;99.90;;;;;;20527811;28;20073;-41
2024/02/19 04:00:25;;;;;;;29.90;19.27;;;3.90;99.90;;;;;;20526075;28;21168;-41
2024/02/19 04:10:27;;;;;;;35.20;21.08;;;3.70;99.90;;;;;;20526033;28;20126;-41
2024/02/19 04:20:28;;;;;;;39.53;22.40;;;3.30;99.90;;;;;;20522737;28;21193;-41
2024/02/19 04:30:30;;;;;;;40.50;23.25;;;2.80;99.90;;;;;;20522033;28;20136;-43
2024/02/19 04:40:32;;;;;;;47.35;26.13;;;2.40;99.90;;;;;;20521520;28;21251;-41
2024/02/19 04:50:34;;;;;;;48.42;26.33;;;2.20;99.90;;;;;;20530881;28;21196;-42
2024/02/19 05:00:37;;;;;;;60.30;32.13;;;2.20;99.90;;;;;;20540220;28;20128;-41
2024/02/19 05:10:39;;;;;;;52.55;29.17;;;2.20;99.90;;;;;;20538706;28;22767;-40
2024/02/19 05:20:40;;;;;;;53.10;29.48;;;2.20;99.90;;;;;;20539819;28;20125;-41
2024/02/19 05:30:45;;;;;;;52.50;28.95;;;2.00;99.90;;;;;;20531602;28;20129;-42
2024/02/19 05:40:47;;;;;;;56.20;30.77;;;2.00;99.90;;;;;;20531995;28;21037;-41
2024/02/19 05:50:49;;;;;;;52.70;28.98;;;2.00;99.90;;;;;;20533589;28;20179;-40
2024/02/19 06:00:51;;;;;;;57.08;30.73;;;2.00;99.90;;;;;;20530447;28;20247;-40
2024/02/19 06:10:53;;;;;;;75.32;39.60;;;1.90;99.90;;;;;;20533227;28;20160;-41
2024/02/19 06:20:54;;;;;;;60.30;33.90;;;1.90;99.90;;;;;;20529981;28;20128;-42
2024/02/19 06:30:56;;;;;;;47.72;26.13;;;2.00;99.90;;;;;;20532618;28;20239;-41
2024/02/19 06:40:58;;;;;;;27.88;16.13;;;1.90;99.90;;;;;;20526319;28;20160;-42
2024/02/19 06:50:59;;;;;;;48.60;26.60;;;2.00;99.90;;;;;;20530505;28;20722;-41
2024/02/19 07:01:04;;;;;;;52.03;29.65;;;2.20;99.90;;;;;;20527393;28;20053;-42
2024/02/19 07:11:09;;;;;;;41.38;21.83;;;2.50;99.90;;;;;;20529238;28;20242;-43
2024/02/19 07:21:11;;;;;;;20.63;12.73;;;2.60;99.90;;;;;;20522068;28;20617;-41
2024/02/19 07:31:13;;;;;;;17.83;10.90;;;3.40;99.90;;;;;;20522817;28;20150;-42
2024/02/19 07:41:18;;;;;;;9.45;6.07;;;4.30;99.90;;;;;;20518016;28;20140;-44
2024/02/19 07:51:20;;;;;;;9.30;5.75;;;5.40;99.90;;;;;;20521552;28;20136;-42
2024/02/19 08:01:23;;;;;;;37.28;23.77;;;6.90;99.90;;;;;;20520529;28;20172;-43
2024/02/19 08:11:24;;;;;;;7.28;4.55;;;7.80;99.90;;;;;;20520039;28;20068;-42
2024/02/19 08:21:30;;;;;;;14.73;13.23;;;8.50;99.90;;;;;;20518298;28;20159;-45
2024/02/19 08:31:32;;;;;;;5.60;3.25;;;9.00;99.90;;;;;;20518027;28;20435;-46
2024/02/19 08:41:33;;;;;;;4.55;3.00;;;9.50;99.90;;;;;;20500140;28;20637;-43
2024/02/19 08:51:38;;;;;;;4.35;3.05;;;9.80;99.40;;;;;;20517514;28;20119;-43
2024/02/19 09:01:39;;;;;;;5.85;2.90;;;10.20;99.70;;;;;;20516577;28;20271;-41
2024/02/19 09:11:41;;;;;;;5.30;2.67;;;10.60;96.80;;;;;;20513977;28;20175;-43
2024/02/19 09:21:44;;;;;;;4.90;2.50;;;10.40;96.70;;;;;;20517573;28;20200;-45
2024/02/19 09:31:46;;;;;;;4.18;1.88;;;10.80;96.60;;;;;;20515690;28;20160;-42
2024/02/19 09:41:48;;;;;;;4.25;2.22;;;11.50;92.60;;;;;;20526217;28;20125;-43
2024/02/19 09:51:54;;;;;;;27.35;20.98;;;11.50;92.00;;;;;;20526214;28;21326;-42
2024/02/19 10:01:56;;;;;;;26.38;19.52;;;11.60;99.90;;;;;;20527365;28;20179;-42
2024/02/19 10:11:58;;;;;;;26.73;17.38;;;12.00;99.90;;;;;;20527072;28;20154;-46
2024/02/19 10:22:00;;;;;;;4.70;2.72;;;12.20;99.90;;;;;;20527660;28;20726;-44
2024/02/19 10:32:02;;;;;;;14.35;9.73;;;12.00;93.20;;;;;;20524810;28;20582;-44
2024/02/19 10:42:04;;;;;;;32.97;23.23;;;12.30;94.20;;;;;;20522805;28;20166;-42
2024/02/19 10:52:07;;;;;;;29.55;20.15;;;13.50;99.90;;;;;;20522485;28;20183;-42
2024/02/19 11:02:09;;;;;;;23.65;16.15;;;13.30;98.80;;;;;;20524674;28;20932;-42
2024/02/19 11:12:15;;;;;;;23.10;15.27;;;13.60;98.60;;;;;;20523989;28;20167;-43
2024/02/19 11:22:22;;;;;;;2.80;1.08;;;13.40;96.80;;;;;;20520821;28;20037;-42
2024/02/19 11:32:24;;;;;;;0.98;0.50;;;12.90;85.30;;;;;;20522114;28;20716;-41
2024/02/19 11:42:26;;;;;;;0.93;0.70;;;12.90;80.40;;;;;;20520750;28;20232;-52
2024/02/19 11:52:28;;;;;;;1.05;0.70;;;12.30;79.90;;;;;;20521738;28;20183;-41
2024/02/19 12:02:29;;;;;;;3.53;1.98;;;11.90;81.20;;;;;;20519244;28;20567;-41
2024/02/19 12:12:31;;;;;;;2.63;1.70;;;12.00;83.80;;;;;;20497682;28;20122;-42
2024/02/19 12:22:34;;;;;;;2.40;1.50;;;12.10;82.90;;;;;;20515836;28;20402;-43
2024/02/19 12:32:36;;;;;;;3.30;1.90;;;12.20;81.80;;;;;;20498056;28;20174;-41
2024/02/19 12:42:38;;;;;;;1.98;1.30;;;12.30;82.30;;;;;;20519254;28;20123;-42
2024/02/19 12:52:39;;;;;;;4.18;1.80;;;12.50;82.30;;;;;;20500262;28;20054;-42
2024/02/19 13:02:41;;;;;;;2.22;1.10;;;12.40;80.30;;;;;;20513959;28;20449;-43
2024/02/19 13:12:44;;;;;;;2.92;1.45;;;12.50;81.60;;;;;;20522648;28;20115;-42
2024/02/19 13:22:46;;;;;;;2.40;1.55;;;12.40;81.40;;;;;;20529971;28;21103;-42
2024/02/19 13:32:48;;;;;;;36.63;23.58;;;12.10;81.00;;;;;;20512200;28;20140;-43
2024/02/19 13:42:50;;;;;;;18.77;12.57;;;12.80;93.00;;;;;;20528093;28;20154;-43
2024/02/19 13:52:52;;;;;;;9.15;5.57;;;12.70;91.50;;;;;;20447857;28;20188;-43
2024/02/19 14:02:54;;;;;;;11.27;8.00;;;11.80;90.30;;;;;;20449333;28;20132;-41
2024/02/19 14:12:56;;;;;;;6.05;3.97;;;11.00;91.90;;;;;;20448066;28;20169;-41
2024/02/19 14:22:58;;;;;;;8.88;6.45;;;10.30;91.50;;;;;;20447399;28;21068;-42
2024/02/19 14:33:00;;;;;;;30.38;22.10;;;10.60;91.90;;;;;;20448803;28;20160;-41
2024/02/19 14:43:02;;;;;;;44.92;30.40;;;10.80;96.00;;;;;;20446592;28;20188;-41
2024/02/19 14:53:04;;;;;;;50.45;32.60;;;10.30;99.90;;;;;;20520989;28;21771;-49
2024/02/19 15:03:07;;;;;;;51.80;36.08;;;9.70;99.90;;;;;;20528870;28;20795;-42
2024/02/19 15:13:09;;;;;;;56.50;38.20;;;9.50;99.90;;;;;;20523724;28;20235;-40
2024/02/19 15:23:11;;;;;;;53.10;35.72;;;9.30;99.90;;;;;;20524271;28;20287;-40
2024/02/19 15:33:13;;;;;;;63.83;43.53;;;9.30;99.90;;;;;;20523170;28;21199;-41
2024/02/19 15:43:15;;;;;;;76.70;48.53;;;9.40;99.90;;;;;;20524597;28;20874;-40
2024/02/19 15:53:17;;;;;;;85.53;55.15;;;9.00;99.90;;;;;;20520902;28;20191;-40
2024/02/19 16:03:20;;;;;;;96.40;61.17;;;8.40;99.90;;;;;;20519767;28;20132;-40
2024/02/19 16:13:21;;;;;;;95.38;58.72;;;7.90;99.90;;;;;;20520381;28;20517;-40
2024/02/19 16:23:24;;;;;;;47.83;29.63;;;7.30;99.90;;;;;;20519248;28;20124;-40
2024/02/19 16:33:27;;;;;;;2.42;1.80;;;6.50;99.90;;;;;;20516981;28;20289;-40
2024/02/19 16:43:29;;;;;;;5.32;2.45;;;6.00;99.90;;;;;;20518558;28;20144;-42
2024/02/19 16:53:34;;;;;;;6.93;4.00;;;5.60;99.90;;;;;;20517677;28;20156;-42
2024/02/19 17:03:36;;;;;;;6.65;2.45;;;5.00;99.90;;;;;;20521593;28;20383;-40
2024/02/19 17:13:38;;;;;;;3.95;2.25;;;4.60;99.90;;;;;;20518496;28;20558;-40
2024/02/19 17:23:42;;;;;;;6.47;3.90;;;4.40;99.90;;;;;;20519276;28;20163;-44
2024/02/19 17:33:44;;;;;;;5.35;2.88;;;4.50;99.90;;;;;;20515602;28;20132;-40
2024/02/19 17:43:48;;;;;;;5.32;3.10;;;4.50;99.90;;;;;;20521039;28;20156;-41
2024/02/19 17:53:52;;;;;;;4.90;2.95;;;4.60;99.90;;;;;;20437357;28;20314;-44
2024/02/19 18:03:54;;;;;;;6.47;3.75;;;4.70;99.90;;;;;;20452951;28;20179;-42
2024/02/19 18:13:57;;;;;;;8.48;4.82;;;4.80;99.90;;;;;;20452514;28;21154;-41
2024/02/19 18:23:59;;;;;;;16.45;10.75;;;5.30;99.90;;;;;;20449903;28;20156;-41
2024/02/19 18:34:02;;;;;;;14.18;8.48;;;5.50;99.90;;;;;;20449365;28;20160;-43
2024/02/19 18:44:05;;;;;;;16.88;8.25;;;5.40;99.90;;;;;;20446973;28;21193;-41
2024/02/19 18:54:08;;;;;;;10.82;6.32;;;5.10;99.90;;;;;;20531362;28;21892;-41
2024/02/19 19:04:10;;;;;;;6.07;3.50;;;4.70;99.90;;;;;;20529132;28;20195;-42
2024/02/19 19:14:14;;;;;;;42.33;25.25;;;5.00;99.90;;;;;;20523046;28;20515;-41
2024/02/19 19:24:17;;;;;;;67.00;39.00;;;5.50;99.90;;;;;;20525495;28;20186;-41
2024/02/19 19:34:19;;;;;;;71.22;42.95;;;5.80;99.90;;;;;;20524306;28;20694;-41
2024/02/19 19:44:21;;;;;;;81.45;44.00;;;5.80;99.90;;;;;;20504980;28;20171;-41
2024/02/19 19:54:23;;;;;;;12.60;6.82;;;5.80;99.90;;;;;;20521232;28;20147;-43
2024/02/19 20:04:28;;;;;;;3.40;2.30;;;5.60;99.90;;;;;;20523149;28;20239;-42
2024/02/19 20:14:30;;;;;;;2.63;1.70;;;5.40;99.90;;;;;;20520442;28;20137;-41
2024/02/19 20:24:32;;;;;;;2.58;1.00;;;5.00;99.90;;;;;;20518648;28;21211;-43
2024/02/19 20:34:35;;;;;;;1.48;0.90;;;4.60;99.90;;;;;;20521672;28;20151;-42
2024/02/19 20:44:40;;;;;;;1.70;1.00;;;4.50;99.90;;;;;;20520225;28;20144;-41
2024/02/19 20:54:42;;;;;;;2.00;1.13;;;4.40;99.90;;;;;;20517271;28;20135;-53
2024/02/19 21:04:44;;;;;;;1.70;0.90;;;4.40;99.90;;;;;;20518146;28;21260;-41
2024/02/19 21:14:46;;;;;;;3.05;1.30;;;4.30;99.90;;;;;;20520021;28;20434;-41
2024/02/19 21:24:48;;;;;;;3.25;1.52;;;4.30;99.90;;;;;;20517572;28;21509;-41
2024/02/19 21:34:51;;;;;;;3.75;1.77;;;4.50;99.90;;;;;;20527050;28;20177;-40
2024/02/19 21:44:53;;;;;;;1.70;1.10;;;4.60;99.90;;;;;;20534020;28;20099;-41
2024/02/19 21:54:55;;;;;;;2.00;0.90;;;5.10;99.90;;;;;;20533891;28;20132;-41
2024/02/19 22:04:57;;;;;;;2.42;0.57;;;5.40;99.20;;;;;;20533466;28;20250;-41
2024/02/19 22:14:59;;;;;;;1.55;0.90;;;5.20;99.30;;;;;;20533293;28;20203;-42
2024/02/19 22:25:03;;;;;;;1.42;0.52;;;4.70;99.90;;;;;;20510066;28;20060;-41
2024/02/19 22:35:07;;;;;;;2.78;0.90;;;4.30;99.90;;;;;;20529342;28;21891;-41
2024/02/19 22:45:10;;;;;;;6.68;3.88;;;3.80;99.90;;;;;;20529723;28;20968;-41
2024/02/19 22:55:12;;;;;;;5.65;3.25;;;3.40;99.90;;;;;;20510435;28;20610;-41
2024/02/19 23:05:14;;;;;;;4.68;1.25;;;3.20;99.90;;;;;;20526814;28;20132;-42
2024/02/19 23:15:16;;;;;;;2.20;0.88;;;3.10;99.90;;;;;;20528157;28;20242;-40
2024/02/19 23:25:18;;;;;;;1.23;0.63;;;3.20;99.90;;;;;;20526129;28;20124;-41
2024/02/19 23:35:20;;;;;;;0.93;0.40;;;3.60;99.90;;;;;;20525057;28;20171;-42
2024/02/19 23:45:22;;;;;;;1.92;0.45;;;3.90;99.90;;;;;;20523880;28;21222;-40
2024/02/19 23:55:24;;;;;;;62.85;36.85;;;4.20;99.60;;;;;;20521629;28;21222;-43
